sensor_id;sensor_type;location;lat;lon;timestamp;temperature;humidity
20866;DHT22;10593;48.398;10.698;2022-07-23T00:01:34;28.40;40.30
20866;DHT22;10593;48.398;10.698;2022-07-23T00:04:00;28.40;40.20
20866;DHT22;10593;48.398;10.698;2022-07-23T00:06:26;28.40;40.10
20866;DHT22;10593;48.398;10.698;2022-07-23T00:08:52;28.40;39.90
20866;DHT22;10593;48.398;10.698;2022-07-23T00:11:18;28.40;39.80
20866;DHT22;10593;48.398;10.698;2022-07-23T00:13:44;28.40;39.40
20866;DHT22;10593;48.398;10.698;2022-07-23T00:16:10;28.40;39.40
20866;DHT22;10593;48.398;10.698;2022-07-23T00:18:35;28.40;39.00
20866;DHT22;10593;48.398;10.698;2022-07-23T00:21:01;28.40;38.70
20866;DHT22;10593;48.398;10.698;2022-07-23T00:23:27;28.40;38.90
20866;DHT22;10593;48.398;10.698;2022-07-23T00:25:54;28.40;39.00
20866;DHT22;10593;48.398;10.698;2022-07-23T00:28:20;28.40;39.50
20866;DHT22;10593;48.398;10.698;2022-07-23T00:30:46;28.40;39.60
20866;DHT22;10593;48.398;10.698;2022-07-23T00:33:12;28.40;40.20
20866;DHT22;10593;48.398;10.698;2022-07-23T00:35:39;28.30;41.40
20866;DHT22;10593;48.398;10.698;2022-07-23T00:38:10;28.30;42.40
20866;DHT22;10593;48.398;10.698;2022-07-23T00:40:37;28.30;44.00
20866;DHT22;10593;48.398;10.698;2022-07-23T00:43:03;28.20;44.30
20866;DHT22;10593;48.398;10.698;2022-07-23T00:45:29;28.10;45.10
20866;DHT22;10593;48.398;10.698;2022-07-23T00:47:56;28.00;44.60
20866;DHT22;10593;48.398;10.698;2022-07-23T00:50:22;28.00;45.00
20866;DHT22;10593;48.398;10.698;2022-07-23T00:52:48;27.90;46.00
20866;DHT22;10593;48.398;10.698;2022-07-23T00:55:14;27.80;46.60
20866;DHT22;10593;48.398;10.698;2022-07-23T00:57:40;27.80;47.20
20866;DHT22;10593;48.398;10.698;2022-07-23T01:00:09;27.70;47.70
20866;DHT22;10593;48.398;10.698;2022-07-23T01:02:37;27.70;48.20
20866;DHT22;10593;48.398;10.698;2022-07-23T01:05:03;27.60;48.20
20866;DHT22;10593;48.398;10.698;2022-07-23T01:07:29;27.50;48.50
20866;DHT22;10593;48.398;10.698;2022-07-23T01:09:55;27.50;48.50
20866;DHT22;10593;48.398;10.698;2022-07-23T01:12:21;27.40;48.10
20866;DHT22;10593;48.398;10.698;2022-07-23T01:15:00;27.40;48.50
20866;DHT22;10593;48.398;10.698;2022-07-23T01:17:26;27.30;48.80
20866;DHT22;10593;48.398;10.698;2022-07-23T01:19:52;27.30;48.70
20866;DHT22;10593;48.398;10.698;2022-07-23T01:22:21;27.20;48.30
20866;DHT22;10593;48.398;10.698;2022-07-23T01:24:47;27.20;48.40
20866;DHT22;10593;48.398;10.698;2022-07-23T01:27:13;27.10;48.00
20866;DHT22;10593;48.398;10.698;2022-07-23T01:29:39;27.10;47.90
20866;DHT22;10593;48.398;10.698;2022-07-23T01:32:06;27.00;48.20
20866;DHT22;10593;48.398;10.698;2022-07-23T01:34:31;26.90;48.60
20866;DHT22;10593;48.398;10.698;2022-07-23T01:36:57;26.90;48.60
20866;DHT22;10593;48.398;10.698;2022-07-23T01:39:23;26.80;48.60
20866;DHT22;10593;48.398;10.698;2022-07-23T01:41:48;26.80;48.80
20866;DHT22;10593;48.398;10.698;2022-07-23T01:44:14;26.70;48.90
20866;DHT22;10593;48.398;10.698;2022-07-23T01:46:40;26.70;49.10
20866;DHT22;10593;48.398;10.698;2022-07-23T01:49:06;26.60;49.30
20866;DHT22;10593;48.398;10.698;2022-07-23T01:51:32;26.60;49.60
20866;DHT22;10593;48.398;10.698;2022-07-23T01:53:57;26.50;49.70
20866;DHT22;10593;48.398;10.698;2022-07-23T01:56:23;26.60;49.70
20866;DHT22;10593;48.398;10.698;2022-07-23T01:58:49;26.50;49.90
20866;DHT22;10593;48.398;10.698;2022-07-23T02:01:14;26.50;50.20
20866;DHT22;10593;48.398;10.698;2022-07-23T02:03:40;26.50;50.10
20866;DHT22;10593;48.398;10.698;2022-07-23T02:06:06;26.40;50.70
20866;DHT22;10593;48.398;10.698;2022-07-23T02:08:31;26.40;50.40
20866;DHT22;10593;48.398;10.698;2022-07-23T02:10:57;26.40;50.50
20866;DHT22;10593;48.398;10.698;2022-07-23T02:13:23;26.30;50.50
20866;DHT22;10593;48.398;10.698;2022-07-23T02:15:48;26.30;50.60
20866;DHT22;10593;48.398;10.698;2022-07-23T02:18:15;26.30;51.10
20866;DHT22;10593;48.398;10.698;2022-07-23T02:20:41;26.30;51.20
20866;DHT22;10593;48.398;10.698;2022-07-23T02:23:07;26.30;51.40
20866;DHT22;10593;48.398;10.698;2022-07-23T02:25:33;26.20;51.80
20866;DHT22;10593;48.398;10.698;2022-07-23T02:27:59;26.20;51.50
20866;DHT22;10593;48.398;10.698;2022-07-23T02:30:25;26.20;51.40
20866;DHT22;10593;48.398;10.698;2022-07-23T02:32:51;26.20;51.60
20866;DHT22;10593;48.398;10.698;2022-07-23T02:35:17;26.10;51.70
20866;DHT22;10593;48.398;10.698;2022-07-23T02:37:43;26.10;51.60
20866;DHT22;10593;48.398;10.698;2022-07-23T02:40:09;26.10;51.60
20866;DHT22;10593;48.398;10.698;2022-07-23T02:42:35;26.00;51.70
20866;DHT22;10593;48.398;10.698;2022-07-23T02:45:01;26.00;51.60
20866;DHT22;10593;48.398;10.698;2022-07-23T02:47:26;26.00;51.70
20866;DHT22;10593;48.398;10.698;2022-07-23T02:49:52;25.90;51.80
20866;DHT22;10593;48.398;10.698;2022-07-23T02:52:17;25.90;52.20
20866;DHT22;10593;48.398;10.698;2022-07-23T02:54:43;25.80;52.20
20866;DHT22;10593;48.398;10.698;2022-07-23T02:57:09;25.80;52.20
20866;DHT22;10593;48.398;10.698;2022-07-23T02:59:36;25.80;52.30
20866;DHT22;10593;48.398;10.698;2022-07-23T03:02:02;25.80;52.40
20866;DHT22;10593;48.398;10.698;2022-07-23T03:04:28;25.80;52.40
20866;DHT22;10593;48.398;10.698;2022-07-23T03:06:54;25.80;52.40
20866;DHT22;10593;48.398;10.698;2022-07-23T03:09:20;25.70;52.30
20866;DHT22;10593;48.398;10.698;2022-07-23T03:11:45;25.80;52.40
20866;DHT22;10593;48.398;10.698;2022-07-23T03:14:11;25.70;52.40
20866;DHT22;10593;48.398;10.698;2022-07-23T03:16:38;25.70;52.30
20866;DHT22;10593;48.398;10.698;2022-07-23T03:19:04;25.70;52.20
20866;DHT22;10593;48.398;10.698;2022-07-23T03:21:29;25.60;52.30
20866;DHT22;10593;48.398;10.698;2022-07-23T03:23:55;25.60;52.40
20866;DHT22;10593;48.398;10.698;2022-07-23T03:26:21;25.60;52.40
20866;DHT22;10593;48.398;10.698;2022-07-23T03:28:50;25.60;52.50
20866;DHT22;10593;48.398;10.698;2022-07-23T03:31:16;25.50;52.70
20866;DHT22;10593;48.398;10.698;2022-07-23T03:33:41;25.50;52.80
20866;DHT22;10593;48.398;10.698;2022-07-23T03:36:08;25.50;52.80
20866;DHT22;10593;48.398;10.698;2022-07-23T03:38:34;25.50;52.50
20866;DHT22;10593;48.398;10.698;2022-07-23T03:40:59;25.50;52.60
20866;DHT22;10593;48.398;10.698;2022-07-23T03:43:25;25.50;52.70
20866;DHT22;10593;48.398;10.698;2022-07-23T03:45:51;25.50;52.80
20866;DHT22;10593;48.398;10.698;2022-07-23T03:48:17;25.50;53.10
20866;DHT22;10593;48.398;10.698;2022-07-23T03:50:43;25.50;53.00
20866;DHT22;10593;48.398;10.698;2022-07-23T03:53:08;25.50;52.90
20866;DHT22;10593;48.398;10.698;2022-07-23T03:55:34;25.50;52.80
20866;DHT22;10593;48.398;10.698;2022-07-23T03:57:59;25.40;52.80
20866;DHT22;10593;48.398;10.698;2022-07-23T04:00:25;25.50;53.20
20866;DHT22;10593;48.398;10.698;2022-07-23T04:02:51;25.40;53.10
20866;DHT22;10593;48.398;10.698;2022-07-23T04:05:16;25.50;52.80
20866;DHT22;10593;48.398;10.698;2022-07-23T04:07:43;25.40;52.80
20866;DHT22;10593;48.398;10.698;2022-07-23T04:10:08;25.40;52.90
20866;DHT22;10593;48.398;10.698;2022-07-23T04:12:34;25.40;53.00
20866;DHT22;10593;48.398;10.698;2022-07-23T04:15:00;25.40;53.00
20866;DHT22;10593;48.398;10.698;2022-07-23T04:17:26;25.40;52.90
20866;DHT22;10593;48.398;10.698;2022-07-23T04:19:52;25.30;52.90
20866;DHT22;10593;48.398;10.698;2022-07-23T04:22:17;25.30;52.90
20866;DHT22;10593;48.398;10.698;2022-07-23T04:24:43;25.20;53.10
20866;DHT22;10593;48.398;10.698;2022-07-23T04:27:09;25.20;53.30
20866;DHT22;10593;48.398;10.698;2022-07-23T04:29:34;25.20;53.40
20866;DHT22;10593;48.398;10.698;2022-07-23T04:32:00;25.20;53.50
20866;DHT22;10593;48.398;10.698;2022-07-23T04:34:26;25.20;53.70
20866;DHT22;10593;48.398;10.698;2022-07-23T04:36:52;25.20;53.70
20866;DHT22;10593;48.398;10.698;2022-07-23T04:39:19;25.20;53.80
20866;DHT22;10593;48.398;10.698;2022-07-23T04:41:45;25.20;53.70
20866;DHT22;10593;48.398;10.698;2022-07-23T04:44:10;25.20;53.80
20866;DHT22;10593;48.398;10.698;2022-07-23T04:46:36;25.20;53.60
20866;DHT22;10593;48.398;10.698;2022-07-23T04:49:02;25.20;53.50
20866;DHT22;10593;48.398;10.698;2022-07-23T04:51:27;25.20;53.50
20866;DHT22;10593;48.398;10.698;2022-07-23T04:53:54;25.20;53.60
20866;DHT22;10593;48.398;10.698;2022-07-23T04:56:20;25.20;53.70
20866;DHT22;10593;48.398;10.698;2022-07-23T04:58:46;25.20;53.90
20866;DHT22;10593;48.398;10.698;2022-07-23T05:01:11;25.20;54.00
20866;DHT22;10593;48.398;10.698;2022-07-23T05:03:37;25.20;54.40
20866;DHT22;10593;48.398;10.698;2022-07-23T05:06:03;25.20;54.20
20866;DHT22;10593;48.398;10.698;2022-07-23T05:08:28;25.20;54.40
20866;DHT22;10593;48.398;10.698;2022-07-23T05:10:54;25.10;54.50
20866;DHT22;10593;48.398;10.698;2022-07-23T05:13:20;25.20;54.40
20866;DHT22;10593;48.398;10.698;2022-07-23T05:15:46;25.20;54.30
20866;DHT22;10593;48.398;10.698;2022-07-23T05:18:12;25.20;54.50
20866;DHT22;10593;48.398;10.698;2022-07-23T05:20:38;25.10;54.60
20866;DHT22;10593;48.398;10.698;2022-07-23T05:23:04;25.20;54.60
20866;DHT22;10593;48.398;10.698;2022-07-23T05:25:30;25.20;54.80
20866;DHT22;10593;48.398;10.698;2022-07-23T05:27:55;25.20;54.80
20866;DHT22;10593;48.398;10.698;2022-07-23T05:30:21;25.20;54.80
20866;DHT22;10593;48.398;10.698;2022-07-23T05:32:47;25.20;54.90
20866;DHT22;10593;48.398;10.698;2022-07-23T05:35:13;25.20;54.90
20866;DHT22;10593;48.398;10.698;2022-07-23T05:37:38;25.20;54.40
20866;DHT22;10593;48.398;10.698;2022-07-23T05:40:06;25.20;54.60
20866;DHT22;10593;48.398;10.698;2022-07-23T05:42:35;25.20;54.50
20866;DHT22;10593;48.398;10.698;2022-07-23T05:45:01;25.20;54.60
20866;DHT22;10593;48.398;10.698;2022-07-23T05:47:27;25.20;54.50
20866;DHT22;10593;48.398;10.698;2022-07-23T05:49:53;25.20;54.60
20866;DHT22;10593;48.398;10.698;2022-07-23T05:52:18;25.20;54.80
20866;DHT22;10593;48.398;10.698;2022-07-23T05:54:44;25.20;54.70
20866;DHT22;10593;48.398;10.698;2022-07-23T05:57:09;25.20;54.70
20866;DHT22;10593;48.398;10.698;2022-07-23T05:59:35;25.20;54.80
20866;DHT22;10593;48.398;10.698;2022-07-23T06:02:01;25.20;54.70
20866;DHT22;10593;48.398;10.698;2022-07-23T06:04:26;25.20;54.60
20866;DHT22;10593;48.398;10.698;2022-07-23T06:06:52;25.30;54.60
20866;DHT22;10593;48.398;10.698;2022-07-23T06:09:18;25.20;54.50
20866;DHT22;10593;48.398;10.698;2022-07-23T06:11:43;25.30;54.70
20866;DHT22;10593;48.398;10.698;2022-07-23T06:14:09;25.30;54.50
20866;DHT22;10593;48.398;10.698;2022-07-23T06:16:35;25.30;54.50
20866;DHT22;10593;48.398;10.698;2022-07-23T06:19:00;25.30;54.50
20866;DHT22;10593;48.398;10.698;2022-07-23T06:21:26;25.30;54.50
20866;DHT22;10593;48.398;10.698;2022-07-23T06:23:52;25.30;54.40
20866;DHT22;10593;48.398;10.698;2022-07-23T06:26:17;25.20;54.40
20866;DHT22;10593;48.398;10.698;2022-07-23T06:28:43;25.30;54.80
20866;DHT22;10593;48.398;10.698;2022-07-23T06:31:09;25.30;54.40
20866;DHT22;10593;48.398;10.698;2022-07-23T06:33:34;25.20;54.10
20866;DHT22;10593;48.398;10.698;2022-07-23T06:36:00;25.20;54.20
20866;DHT22;10593;48.398;10.698;2022-07-23T06:38:25;25.20;54.30
20866;DHT22;10593;48.398;10.698;2022-07-23T06:40:51;25.20;54.20
20866;DHT22;10593;48.398;10.698;2022-07-23T06:43:17;25.20;54.30
20866;DHT22;10593;48.398;10.698;2022-07-23T06:45:43;25.20;54.30
20866;DHT22;10593;48.398;10.698;2022-07-23T06:48:08;25.20;54.90
20866;DHT22;10593;48.398;10.698;2022-07-23T06:50:34;25.20;55.00
20866;DHT22;10593;48.398;10.698;2022-07-23T06:53:00;25.20;55.10
20866;DHT22;10593;48.398;10.698;2022-07-23T06:55:26;25.20;55.10
20866;DHT22;10593;48.398;10.698;2022-07-23T06:57:51;25.20;55.00
20866;DHT22;10593;48.398;10.698;2022-07-23T07:00:17;25.20;55.00
20866;DHT22;10593;48.398;10.698;2022-07-23T07:02:43;25.20;55.10
20866;DHT22;10593;48.398;10.698;2022-07-23T07:05:09;25.20;54.90
20866;DHT22;10593;48.398;10.698;2022-07-23T07:07:35;25.20;54.90
20866;DHT22;10593;48.398;10.698;2022-07-23T07:10:02;25.20;54.90
20866;DHT22;10593;48.398;10.698;2022-07-23T07:12:28;25.20;55.00
20866;DHT22;10593;48.398;10.698;2022-07-23T07:14:54;25.20;54.90
20866;DHT22;10593;48.398;10.698;2022-07-23T07:17:22;25.20;54.60
20866;DHT22;10593;48.398;10.698;2022-07-23T07:19:48;25.20;54.70
20866;DHT22;10593;48.398;10.698;2022-07-23T07:22:14;25.20;54.70
20866;DHT22;10593;48.398;10.698;2022-07-23T07:24:39;25.30;54.70
20866;DHT22;10593;48.398;10.698;2022-07-23T07:27:05;25.30;54.70
20866;DHT22;10593;48.398;10.698;2022-07-23T07:29:31;25.30;54.60
20866;DHT22;10593;48.398;10.698;2022-07-23T07:31:57;25.30;54.40
20866;DHT22;10593;48.398;10.698;2022-07-23T07:34:22;25.30;54.40
20866;DHT22;10593;48.398;10.698;2022-07-23T07:36:48;25.30;54.70
20866;DHT22;10593;48.398;10.698;2022-07-23T07:39:15;25.30;54.30
20866;DHT22;10593;48.398;10.698;2022-07-23T07:41:40;25.30;54.20
20866;DHT22;10593;48.398;10.698;2022-07-23T07:44:06;25.30;54.30
20866;DHT22;10593;48.398;10.698;2022-07-23T07:46:32;25.30;53.90
20866;DHT22;10593;48.398;10.698;2022-07-23T07:48:57;25.40;54.20
20866;DHT22;10593;48.398;10.698;2022-07-23T07:51:23;25.40;54.20
20866;DHT22;10593;48.398;10.698;2022-07-23T07:53:49;25.30;54.40
20866;DHT22;10593;48.398;10.698;2022-07-23T07:56:15;25.40;54.60
20866;DHT22;10593;48.398;10.698;2022-07-23T07:58:40;25.40;54.70
20866;DHT22;10593;48.398;10.698;2022-07-23T08:01:06;25.40;54.70
20866;DHT22;10593;48.398;10.698;2022-07-23T08:03:32;25.40;55.00
20866;DHT22;10593;48.398;10.698;2022-07-23T08:05:57;25.40;55.20
20866;DHT22;10593;48.398;10.698;2022-07-23T08:08:23;25.50;55.20
20866;DHT22;10593;48.398;10.698;2022-07-23T08:10:50;25.50;55.50
20866;DHT22;10593;48.398;10.698;2022-07-23T08:13:16;25.60;55.30
20866;DHT22;10593;48.398;10.698;2022-07-23T08:15:42;25.60;55.30
20866;DHT22;10593;48.398;10.698;2022-07-23T08:18:09;25.80;55.30
20866;DHT22;10593;48.398;10.698;2022-07-23T08:20:35;25.80;55.00
20866;DHT22;10593;48.398;10.698;2022-07-23T08:23:08;26.00;54.90
20866;DHT22;10593;48.398;10.698;2022-07-23T08:25:39;26.10;54.70
20866;DHT22;10593;48.398;10.698;2022-07-23T08:28:09;26.20;54.80
20866;DHT22;10593;48.398;10.698;2022-07-23T08:30:37;26.30;54.40
20866;DHT22;10593;48.398;10.698;2022-07-23T08:33:15;26.40;54.50
20866;DHT22;10593;48.398;10.698;2022-07-23T08:35:44;26.50;54.00
20866;DHT22;10593;48.398;10.698;2022-07-23T08:38:16;26.60;53.50
20866;DHT22;10593;48.398;10.698;2022-07-23T08:40:45;26.70;53.30
20866;DHT22;10593;48.398;10.698;2022-07-23T08:43:15;26.80;53.20
20866;DHT22;10593;48.398;10.698;2022-07-23T08:45:47;26.90;53.10
20866;DHT22;10593;48.398;10.698;2022-07-23T08:48:15;26.90;52.90
20866;DHT22;10593;48.398;10.698;2022-07-23T08:50:53;27.00;53.30
20866;DHT22;10593;48.398;10.698;2022-07-23T08:53:22;27.10;52.60
20866;DHT22;10593;48.398;10.698;2022-07-23T08:55:52;27.20;52.50
20866;DHT22;10593;48.398;10.698;2022-07-23T08:58:19;27.30;52.30
20866;DHT22;10593;48.398;10.698;2022-07-23T09:00:46;27.30;52.00
20866;DHT22;10593;48.398;10.698;2022-07-23T09:03:21;27.30;52.30
20866;DHT22;10593;48.398;10.698;2022-07-23T09:05:52;27.40;52.30
20866;DHT22;10593;48.398;10.698;2022-07-23T09:08:20;27.50;52.30
20866;DHT22;10593;48.398;10.698;2022-07-23T09:10:55;27.50;52.30
20866;DHT22;10593;48.398;10.698;2022-07-23T09:18:44;27.70;51.90
20866;DHT22;10593;48.398;10.698;2022-07-23T09:21:12;27.70;52.00
20866;DHT22;10593;48.398;10.698;2022-07-23T09:26:22;27.80;52.00
20866;DHT22;10593;48.398;10.698;2022-07-23T09:31:25;27.90;51.70
20866;DHT22;10593;48.398;10.698;2022-07-23T09:34:06;28.00;51.60
20866;DHT22;10593;48.398;10.698;2022-07-23T09:36:39;28.00;50.80
20866;DHT22;10593;48.398;10.698;2022-07-23T09:39:06;28.10;50.90
20866;DHT22;10593;48.398;10.698;2022-07-23T09:41:41;28.10;50.80
20866;DHT22;10593;48.398;10.698;2022-07-23T09:44:19;28.10;50.40
20866;DHT22;10593;48.398;10.698;2022-07-23T09:46:47;28.20;49.90
20866;DHT22;10593;48.398;10.698;2022-07-23T09:49:20;28.20;49.40
20866;DHT22;10593;48.398;10.698;2022-07-23T09:51:59;28.30;48.80
20866;DHT22;10593;48.398;10.698;2022-07-23T09:57:03;28.30;49.20
20866;DHT22;10593;48.398;10.698;2022-07-23T09:59:35;28.30;49.20
20866;DHT22;10593;48.398;10.698;2022-07-23T10:02:03;28.30;49.10
20866;DHT22;10593;48.398;10.698;2022-07-23T10:04:31;28.40;49.30
20866;DHT22;10593;48.398;10.698;2022-07-23T10:07:02;28.40;49.30
20866;DHT22;10593;48.398;10.698;2022-07-23T10:09:33;28.50;49.20
20866;DHT22;10593;48.398;10.698;2022-07-23T10:12:03;28.50;48.80
20866;DHT22;10593;48.398;10.698;2022-07-23T10:14:34;28.50;48.20
20866;DHT22;10593;48.398;10.698;2022-07-23T10:17:03;28.60;48.40
20866;DHT22;10593;48.398;10.698;2022-07-23T10:19:30;28.60;48.80
20866;DHT22;10593;48.398;10.698;2022-07-23T10:22:00;28.60;48.30
20866;DHT22;10593;48.398;10.698;2022-07-23T10:30:36;28.70;48.10
20866;DHT22;10593;48.398;10.698;2022-07-23T10:36:12;28.70;48.50
20866;DHT22;10593;48.398;10.698;2022-07-23T10:39:08;28.70;47.70
20866;DHT22;10593;48.398;10.698;2022-07-23T10:41:40;28.70;47.70
20866;DHT22;10593;48.398;10.698;2022-07-23T10:44:33;28.80;47.50
20866;DHT22;10593;48.398;10.698;2022-07-23T10:47:10;28.80;47.20
20866;DHT22;10593;48.398;10.698;2022-07-23T10:49:42;28.90;47.20
20866;DHT22;10593;48.398;10.698;2022-07-23T10:54:45;28.90;46.80
20866;DHT22;10593;48.398;10.698;2022-07-23T10:57:15;28.90;47.20
20866;DHT22;10593;48.398;10.698;2022-07-23T11:00:11;29.00;46.60
20866;DHT22;10593;48.398;10.698;2022-07-23T11:02:40;29.00;46.50
20866;DHT22;10593;48.398;10.698;2022-07-23T11:05:09;29.00;46.70
20866;DHT22;10593;48.398;10.698;2022-07-23T11:10:46;29.10;46.40
20866;DHT22;10593;48.398;10.698;2022-07-23T11:13:26;29.20;46.60
20866;DHT22;10593;48.398;10.698;2022-07-23T11:24:16;29.20;46.70
20866;DHT22;10593;48.398;10.698;2022-07-23T11:26:52;29.20;46.20
20866;DHT22;10593;48.398;10.698;2022-07-23T11:31:53;29.30;46.40
20866;DHT22;10593;48.398;10.698;2022-07-23T11:34:39;29.30;46.30
20866;DHT22;10593;48.398;10.698;2022-07-23T11:37:11;29.30;45.90
20866;DHT22;10593;48.398;10.698;2022-07-23T11:39:38;29.40;46.20
20866;DHT22;10593;48.398;10.698;2022-07-23T11:42:06;29.40;46.00
20866;DHT22;10593;48.398;10.698;2022-07-23T11:44:38;29.40;45.80
20866;DHT22;10593;48.398;10.698;2022-07-23T11:47:09;29.40;45.60
20866;DHT22;10593;48.398;10.698;2022-07-23T11:49:37;29.50;45.50
20866;DHT22;10593;48.398;10.698;2022-07-23T11:52:14;29.50;46.10
20866;DHT22;10593;48.398;10.698;2022-07-23T11:54:58;29.50;45.20
20866;DHT22;10593;48.398;10.698;2022-07-23T11:57:43;29.60;45.20
20866;DHT22;10593;48.398;10.698;2022-07-23T12:02:47;29.60;45.40
20866;DHT22;10593;48.398;10.698;2022-07-23T12:05:19;29.60;45.00
20866;DHT22;10593;48.398;10.698;2022-07-23T12:07:46;29.60;44.90
20866;DHT22;10593;48.398;10.698;2022-07-23T12:10:22;29.70;44.80
20866;DHT22;10593;48.398;10.698;2022-07-23T12:12:52;29.70;44.60
20866;DHT22;10593;48.398;10.698;2022-07-23T12:15:23;29.70;44.60
20866;DHT22;10593;48.398;10.698;2022-07-23T12:18:01;29.70;44.50
20866;DHT22;10593;48.398;10.698;2022-07-23T12:20:33;29.60;44.70
20866;DHT22;10593;48.398;10.698;2022-07-23T12:23:03;29.60;44.70
20866;DHT22;10593;48.398;10.698;2022-07-23T12:25:34;29.60;44.70
20866;DHT22;10593;48.398;10.698;2022-07-23T12:28:12;29.70;44.90
20866;DHT22;10593;48.398;10.698;2022-07-23T12:30:44;29.70;44.90
20866;DHT22;10593;48.398;10.698;2022-07-23T12:33:13;29.70;44.80
20866;DHT22;10593;48.398;10.698;2022-07-23T12:36:08;29.70;44.80
20866;DHT22;10593;48.398;10.698;2022-07-23T12:38:47;29.70;44.80
20866;DHT22;10593;48.398;10.698;2022-07-23T12:41:14;29.70;44.60
20866;DHT22;10593;48.398;10.698;2022-07-23T12:43:44;29.70;44.60
20866;DHT22;10593;48.398;10.698;2022-07-23T12:46:21;29.70;44.70
20866;DHT22;10593;48.398;10.698;2022-07-23T12:51:17;29.70;44.80
20866;DHT22;10593;48.398;10.698;2022-07-23T12:53:48;29.60;44.80
20866;DHT22;10593;48.398;10.698;2022-07-23T12:56:18;29.70;45.00
20866;DHT22;10593;48.398;10.698;2022-07-23T12:58:53;29.60;44.80
20866;DHT22;10593;48.398;10.698;2022-07-23T13:04:05;29.60;44.70
20866;DHT22;10593;48.398;10.698;2022-07-23T13:06:34;29.60;44.80
20866;DHT22;10593;48.398;10.698;2022-07-23T13:09:16;29.60;45.00
20866;DHT22;10593;48.398;10.698;2022-07-23T13:11:45;29.60;45.00
20866;DHT22;10593;48.398;10.698;2022-07-23T13:14:12;29.60;45.00
20866;DHT22;10593;48.398;10.698;2022-07-23T13:16:39;29.50;45.20
20866;DHT22;10593;48.398;10.698;2022-07-23T13:19:07;29.50;45.50
20866;DHT22;10593;48.398;10.698;2022-07-23T13:21:33;29.40;45.70
20866;DHT22;10593;48.398;10.698;2022-07-23T13:23:59;29.40;45.70
20866;DHT22;10593;48.398;10.698;2022-07-23T13:26:26;29.40;45.80
20866;DHT22;10593;48.398;10.698;2022-07-23T13:28:52;29.40;45.80
20866;DHT22;10593;48.398;10.698;2022-07-23T13:31:18;29.40;45.80
20866;DHT22;10593;48.398;10.698;2022-07-23T13:33:44;29.40;46.00
20866;DHT22;10593;48.398;10.698;2022-07-23T13:36:10;29.40;46.20
20866;DHT22;10593;48.398;10.698;2022-07-23T13:38:37;29.30;46.30
20866;DHT22;10593;48.398;10.698;2022-07-23T13:41:04;29.40;47.20
20866;DHT22;10593;48.398;10.698;2022-07-23T13:43:30;29.30;48.70
20866;DHT22;10593;48.398;10.698;2022-07-23T13:45:56;29.30;49.30
20866;DHT22;10593;48.398;10.698;2022-07-23T13:48:22;29.30;50.50
20866;DHT22;10593;48.398;10.698;2022-07-23T13:50:49;29.20;50.90
20866;DHT22;10593;48.398;10.698;2022-07-23T13:53:17;29.20;51.00
20866;DHT22;10593;48.398;10.698;2022-07-23T13:55:44;29.20;51.60
20866;DHT22;10593;48.398;10.698;2022-07-23T13:58:11;29.10;51.70
20866;DHT22;10593;48.398;10.698;2022-07-23T14:00:42;29.10;51.60
20866;DHT22;10593;48.398;10.698;2022-07-23T14:03:11;29.10;51.80
20866;DHT22;10593;48.398;10.698;2022-07-23T14:05:37;29.00;51.80
20866;DHT22;10593;48.398;10.698;2022-07-23T14:08:03;29.00;51.50
20866;DHT22;10593;48.398;10.698;2022-07-23T14:10:29;29.00;51.00
20866;DHT22;10593;48.398;10.698;2022-07-23T14:12:55;29.00;50.30
20866;DHT22;10593;48.398;10.698;2022-07-23T14:15:24;29.00;50.20
20866;DHT22;10593;48.398;10.698;2022-07-23T14:17:52;29.10;49.70
20866;DHT22;10593;48.398;10.698;2022-07-23T14:20:18;29.10;49.20
20866;DHT22;10593;48.398;10.698;2022-07-23T14:22:44;29.10;48.80
20866;DHT22;10593;48.398;10.698;2022-07-23T14:25:10;29.10;48.70
20866;DHT22;10593;48.398;10.698;2022-07-23T14:27:37;29.10;48.70
20866;DHT22;10593;48.398;10.698;2022-07-23T14:30:05;29.20;48.70
20866;DHT22;10593;48.398;10.698;2022-07-23T14:32:32;29.20;48.80
20866;DHT22;10593;48.398;10.698;2022-07-23T14:34:58;29.20;48.60
20866;DHT22;10593;48.398;10.698;2022-07-23T14:37:24;29.30;48.40
20866;DHT22;10593;48.398;10.698;2022-07-23T14:39:50;29.30;47.90
20866;DHT22;10593;48.398;10.698;2022-07-23T14:42:17;29.30;47.40
20866;DHT22;10593;48.398;10.698;2022-07-23T14:44:43;29.30;47.20
20866;DHT22;10593;48.398;10.698;2022-07-23T14:47:09;29.30;47.20
20866;DHT22;10593;48.398;10.698;2022-07-23T14:49:36;29.30;47.30
20866;DHT22;10593;48.398;10.698;2022-07-23T14:52:02;29.40;47.60
20866;DHT22;10593;48.398;10.698;2022-07-23T14:54:29;29.40;47.80
20866;DHT22;10593;48.398;10.698;2022-07-23T14:56:56;29.40;47.70
20866;DHT22;10593;48.398;10.698;2022-07-23T14:59:24;29.40;47.60
20866;DHT22;10593;48.398;10.698;2022-07-23T15:01:50;29.40;47.50
20866;DHT22;10593;48.398;10.698;2022-07-23T15:04:16;29.40;47.30
20866;DHT22;10593;48.398;10.698;2022-07-23T15:06:42;29.40;47.00
20866;DHT22;10593;48.398;10.698;2022-07-23T15:09:09;29.30;47.10
20866;DHT22;10593;48.398;10.698;2022-07-23T15:11:35;29.30;47.10
20866;DHT22;10593;48.398;10.698;2022-07-23T15:14:02;29.30;47.00
20866;DHT22;10593;48.398;10.698;2022-07-23T15:16:28;29.30;47.00
20866;DHT22;10593;48.398;10.698;2022-07-23T15:18:54;29.30;47.00
20866;DHT22;10593;48.398;10.698;2022-07-23T15:21:20;29.20;46.90
20866;DHT22;10593;48.398;10.698;2022-07-23T15:23:47;29.30;46.90
20866;DHT22;10593;48.398;10.698;2022-07-23T15:26:12;29.20;46.80
20866;DHT22;10593;48.398;10.698;2022-07-23T15:28:41;29.20;46.90
20866;DHT22;10593;48.398;10.698;2022-07-23T15:31:07;29.20;46.90
20866;DHT22;10593;48.398;10.698;2022-07-23T15:33:33;29.30;46.90
20866;DHT22;10593;48.398;10.698;2022-07-23T15:36:00;29.20;47.00
20866;DHT22;10593;48.398;10.698;2022-07-23T15:38:27;29.20;47.90
20866;DHT22;10593;48.398;10.698;2022-07-23T15:40:56;29.20;49.10
20866;DHT22;10593;48.398;10.698;2022-07-23T15:43:23;29.20;49.00
20866;DHT22;10593;48.398;10.698;2022-07-23T15:45:49;29.20;49.00
20866;DHT22;10593;48.398;10.698;2022-07-23T15:48:16;29.10;49.20
20866;DHT22;10593;48.398;10.698;2022-07-23T15:50:43;29.10;48.70
20866;DHT22;10593;48.398;10.698;2022-07-23T15:53:09;29.10;48.40
20866;DHT22;10593;48.398;10.698;2022-07-23T15:55:34;29.20;48.30
20866;DHT22;10593;48.398;10.698;2022-07-23T15:58:00;29.20;48.20
20866;DHT22;10593;48.398;10.698;2022-07-23T16:00:26;29.20;47.70
20866;DHT22;10593;48.398;10.698;2022-07-23T16:02:52;29.20;47.50
20866;DHT22;10593;48.398;10.698;2022-07-23T16:05:17;29.30;47.50